Main page
METAR-TAF:

METAR-TAF

Airports :

Ontario Municipal Airport

Ontario, Oregon, United States

latitude: 44-01-10N, longitude: 117-00-35W, elevation: 2188 ft

Current weather observation

The report was made 56 minutes ago, at 04:53 UTC
Wind 16 mph from the North/Northwest
Temperature 52°F
Humidity 30%
Pressure 30.15 in. Hg
Visibility: 10 miles
Clear sky

METAR: KONO 220453Z AUTO 34014KT 10SM CLR 11/M06 A3015 RMK AO2 SLP212 T01111056

Time: 23:49 (05:49 UTC)

Forecast

The report was made 29 minutes ago, at 05:20 UTC
Forecast valid from 22 at 06 UTC to 23 at 06 UTC
Wind 10 mph from the West/Northwest
Visibility: 6 miles
Scattered clouds at a height of 20000 ft
From 22 at 1700 UTC
Wind 13 mph from the North/Northwest
Visibility: 6 miles
Clear sky
From 23 at 0100 UTC
Wind 8 mph from the Northeast
Visibility: 6 miles
Scattered clouds at a height of 25000 ft

TAF: KONO 220520Z 2206/2306 30009KT P6SM SCT200 FM221700 33011KT P6SM SKC FM230100 04007KT P6SM SCT250

Weather observations and forecasts of more than 4000 airports (METAR and TAF reports).

The available stations are represented by yellow and red dots on the map.

Hover mouse over dot to see the name of the station.

Then click to see weather observations and forecasts.

To change the map : click on the green buttons with a black cross to zoom in, on the green button with a dash to zoom out, or on the green arrows for adjacent maps.


METAR-TAF: